createdAt,value
2018-10-04T00:01:52.192Z,15.95
2018-10-04T00:04:19.665Z,15.96
2018-10-04T00:06:47.066Z,15.95
2018-10-04T00:09:14.547Z,15.97
2018-10-04T00:11:42.023Z,15.96
2018-10-04T00:14:09.562Z,15.91
2018-10-04T00:16:37.190Z,15.93
2018-10-04T00:19:04.623Z,15.87
2018-10-04T00:21:32.014Z,15.80
2018-10-04T00:23:59.535Z,15.79
2018-10-04T00:26:26.995Z,15.75
2018-10-04T00:28:54.532Z,15.76
2018-10-04T00:31:22.032Z,15.77
2018-10-04T00:33:50.156Z,15.76
2018-10-04T00:36:17.612Z,15.80
2018-10-04T00:38:45.378Z,15.80
2018-10-04T00:41:12.918Z,15.78
2018-10-04T00:43:40.357Z,15.74
2018-10-04T00:46:07.840Z,15.73
2018-10-04T00:48:35.273Z,15.68
2018-10-04T00:51:02.792Z,15.71
2018-10-04T00:53:30.232Z,15.72
2018-10-04T00:55:57.672Z,15.71
2018-10-04T00:58:25.119Z,15.69
2018-10-04T01:00:52.559Z,15.68
2018-10-04T01:03:20.048Z,15.61
2018-10-04T01:05:47.529Z,15.60
2018-10-04T01:08:14.981Z,15.63
2018-10-04T01:10:42.449Z,15.59
2018-10-04T01:13:10.140Z,15.61
2018-10-04T01:15:37.601Z,15.62
2018-10-04T01:20:57.859Z,15.90
2018-10-04T01:23:25.340Z,15.88
2018-10-04T01:25:52.746Z,15.75
2018-10-04T01:28:20.159Z,15.74
2018-10-04T01:30:47.601Z,15.71
2018-10-04T01:33:15.045Z,15.72
2018-10-04T01:35:42.508Z,15.68
2018-10-04T01:38:09.941Z,15.64
2018-10-04T01:40:37.373Z,15.61
2018-10-04T01:43:04.857Z,15.66
2018-10-04T01:45:33.083Z,15.62
2018-10-04T01:48:00.495Z,15.56
2018-10-04T01:50:27.927Z,15.51
2018-10-04T01:52:55.323Z,15.51
2018-10-04T01:55:22.760Z,15.46
2018-10-04T01:57:50.195Z,15.43
2018-10-04T02:00:17.687Z,15.44
2018-10-04T02:02:45.222Z,15.48
2018-10-04T02:05:12.720Z,15.45
2018-10-04T02:07:40.161Z,15.46
2018-10-04T02:10:07.677Z,15.41
2018-10-04T02:12:35.120Z,15.39
2018-10-04T02:15:02.575Z,15.36
2018-10-04T02:17:30.016Z,15.35
2018-10-04T02:19:57.679Z,15.36
2018-10-04T02:22:25.151Z,15.37
2018-10-04T02:24:52.588Z,15.35
2018-10-04T02:27:20.032Z,15.31
2018-10-04T02:29:47.652Z,15.33
2018-10-04T02:32:15.057Z,15.30
2018-10-04T02:34:42.512Z,15.30
2018-10-04T02:37:09.934Z,15.29
2018-10-04T02:39:37.408Z,15.22
2018-10-04T02:42:04.907Z,15.24
2018-10-04T02:44:32.343Z,15.26
2018-10-04T02:46:59.792Z,15.28
2018-10-04T02:49:27.330Z,15.32
2018-10-04T02:51:54.744Z,15.31
2018-10-04T02:54:22.229Z,15.28
2018-10-04T02:56:52.079Z,15.26
2018-10-04T02:59:19.515Z,15.21
2018-10-04T03:01:47.095Z,15.16
2018-10-04T03:04:15.242Z,15.10
2018-10-04T03:06:43.468Z,15.08
2018-10-04T03:09:10.961Z,15.09
2018-10-04T03:11:38.404Z,15.11
2018-10-04T03:14:05.835Z,15.15
2018-10-04T03:16:33.244Z,15.16
2018-10-04T03:19:00.654Z,15.14
2018-10-04T03:21:28.225Z,15.14
2018-10-04T03:23:55.670Z,15.17
2018-10-04T03:26:23.101Z,15.15
2018-10-04T03:28:50.535Z,15.15
2018-10-04T03:31:17.943Z,15.20
2018-10-04T03:33:45.392Z,15.16
2018-10-04T03:36:12.786Z,15.13
2018-10-04T03:38:40.245Z,15.14
2018-10-04T03:41:07.821Z,15.06
2018-10-04T03:43:35.343Z,15.04
2018-10-04T03:46:02.738Z,15.08
2018-10-04T03:48:30.154Z,15.16
2018-10-04T03:50:57.566Z,15.19
2018-10-04T03:53:25.154Z,15.21
2018-10-04T03:55:52.630Z,15.12
2018-10-04T03:58:20.144Z,15.03
2018-10-04T04:00:47.583Z,15.01
2018-10-04T04:03:14.993Z,15.00
2018-10-04T04:05:42.478Z,14.98
2018-10-04T04:08:09.927Z,14.96
2018-10-04T04:10:37.378Z,14.98
2018-10-04T04:13:04.840Z,15.01
2018-10-04T04:15:32.297Z,14.99
2018-10-04T04:17:59.781Z,15.07
2018-10-04T04:20:27.193Z,14.99
2018-10-04T04:22:54.763Z,15.01
2018-10-04T04:25:22.365Z,15.07
2018-10-04T04:27:49.774Z,15.15
2018-10-04T04:30:17.277Z,15.21
2018-10-04T04:32:44.890Z,15.22
2018-10-04T04:35:12.468Z,15.28
2018-10-04T04:37:39.931Z,15.19
2018-10-04T04:40:07.408Z,15.23
2018-10-04T04:42:34.920Z,15.29
2018-10-04T04:45:02.377Z,15.25
2018-10-04T04:47:29.830Z,15.27
2018-10-04T04:49:57.288Z,15.35
2018-10-04T04:52:24.776Z,15.39
2018-10-04T04:54:52.218Z,15.42
2018-10-04T04:57:19.710Z,15.42
2018-10-04T04:59:47.535Z,15.39
2018-10-04T05:02:15.031Z,15.42
2018-10-04T05:04:42.517Z,15.41
2018-10-04T05:07:10.011Z,15.42
2018-10-04T05:09:37.475Z,15.43
2018-10-04T05:12:04.964Z,15.42
2018-10-04T05:14:32.524Z,15.49
2018-10-04T05:17:00.008Z,15.45
2018-10-04T05:19:27.521Z,15.46
2018-10-04T05:21:55.084Z,15.47
2018-10-04T05:24:22.616Z,15.43
2018-10-04T05:26:50.034Z,15.42
2018-10-04T05:29:17.610Z,15.42
2018-10-04T05:31:45.210Z,15.44
2018-10-04T05:34:12.705Z,15.48
2018-10-04T05:36:41.214Z,15.45
2018-10-04T05:39:08.660Z,15.42
2018-10-04T05:41:36.395Z,15.43
2018-10-04T05:44:03.869Z,15.34
2018-10-04T05:46:31.361Z,15.32
2018-10-04T05:48:58.880Z,15.36
2018-10-04T05:51:26.356Z,15.37
2018-10-04T05:53:53.834Z,15.36
2018-10-04T05:56:21.341Z,15.32
2018-10-04T05:58:48.788Z,15.35
2018-10-04T06:01:16.237Z,15.30
2018-10-04T06:03:43.971Z,15.40
2018-10-04T06:06:11.407Z,15.38
2018-10-04T06:08:38.814Z,15.35
2018-10-04T06:11:06.402Z,15.33
2018-10-04T06:13:33.876Z,15.36
2018-10-04T06:16:01.343Z,15.47
2018-10-04T06:18:29.236Z,15.58
2018-10-04T06:20:56.707Z,15.53
2018-10-04T06:23:24.224Z,15.50
2018-10-04T06:25:52.290Z,15.47
2018-10-04T06:28:19.741Z,15.44
2018-10-04T06:30:47.165Z,15.47
2018-10-04T06:33:14.629Z,15.49
2018-10-04T06:35:42.062Z,15.50
2018-10-04T06:38:09.535Z,15.48
2018-10-04T06:40:37.256Z,15.52
2018-10-04T06:43:04.831Z,15.56
2018-10-04T06:45:32.362Z,15.55
2018-10-04T06:48:00.782Z,15.57
2018-10-04T06:50:28.507Z,15.58
2018-10-04T06:52:56.028Z,15.64
2018-10-04T06:55:23.497Z,15.58
2018-10-04T06:57:50.945Z,15.62
2018-10-04T07:00:18.398Z,15.67
2018-10-04T07:02:45.932Z,15.74
2018-10-04T07:05:13.444Z,15.69
2018-10-04T07:07:40.935Z,15.73
2018-10-04T07:10:08.416Z,15.81
2018-10-04T07:12:36.230Z,15.84
2018-10-04T07:15:03.760Z,15.83
2018-10-04T07:17:31.388Z,15.83
2018-10-04T07:19:58.844Z,15.89
2018-10-04T07:22:26.358Z,15.91
2018-10-04T07:24:53.889Z,15.89
2018-10-04T07:27:21.470Z,16.00
2018-10-04T07:29:48.928Z,16.06
2018-10-04T07:32:16.722Z,16.00
2018-10-04T07:34:44.360Z,16.10
2018-10-04T07:37:11.866Z,16.22
2018-10-04T07:39:39.360Z,16.24
2018-10-04T07:42:07.011Z,16.16
2018-10-04T07:44:34.464Z,16.28
2018-10-04T07:47:02.009Z,16.23
2018-10-04T07:49:29.431Z,16.16
2018-10-04T07:51:57.725Z,16.29
2018-10-04T07:54:25.134Z,16.39
2018-10-04T07:56:52.687Z,16.25
2018-10-04T07:59:20.196Z,16.44
2018-10-04T08:01:47.633Z,16.39
2018-10-04T08:04:15.162Z,16.29
2018-10-04T08:06:42.830Z,16.27
2018-10-04T08:09:10.046Z,16.41
2018-10-04T08:11:37.471Z,16.45
2018-10-04T08:14:05.060Z,16.58
2018-10-04T08:16:32.514Z,16.81
2018-10-04T08:19:00.356Z,16.70
2018-10-04T08:21:27.792Z,16.74
2018-10-04T08:23:55.495Z,16.79
2018-10-04T08:26:22.905Z,16.85
2018-10-04T08:28:50.417Z,16.93
2018-10-04T08:31:17.897Z,17.12
2018-10-04T08:33:46.136Z,17.19
2018-10-04T08:36:13.685Z,17.07
2018-10-04T08:38:41.231Z,16.99
2018-10-04T08:41:08.728Z,16.92
2018-10-04T08:43:36.140Z,16.91
2018-10-04T08:46:03.637Z,16.87
2018-10-04T08:48:31.173Z,16.87
2018-10-04T08:50:58.684Z,16.93
2018-10-04T08:53:26.142Z,16.85
2018-10-04T08:55:53.597Z,16.95
2018-10-04T08:58:21.036Z,17.17
2018-10-04T09:00:48.461Z,17.37
2018-10-04T09:03:15.925Z,17.39
2018-10-04T09:05:43.693Z,17.41
2018-10-04T09:08:11.152Z,17.47
2018-10-04T09:10:38.588Z,17.70
2018-10-04T09:13:06.152Z,18.60
2018-10-04T09:15:33.718Z,20.09
2018-10-04T09:18:01.178Z,21.51
2018-10-04T09:20:28.635Z,22.09
2018-10-04T09:22:56.088Z,22.34
2018-10-04T09:25:23.536Z,22.26
2018-10-04T09:27:51.063Z,21.61
2018-10-04T09:30:18.521Z,21.34
2018-10-04T09:32:45.974Z,21.02
2018-10-04T09:35:13.424Z,20.89
2018-10-04T09:37:40.882Z,21.36
2018-10-04T09:40:08.334Z,21.22
2018-10-04T09:42:35.796Z,21.28
2018-10-04T09:45:03.350Z,22.03
2018-10-04T09:47:30.795Z,22.45
2018-10-04T09:49:58.294Z,22.52
2018-10-04T09:52:25.816Z,22.76
2018-10-04T09:54:53.322Z,22.48
2018-10-04T09:57:20.799Z,21.81
2018-10-04T09:59:48.327Z,21.92
2018-10-04T10:02:15.773Z,21.92
2018-10-04T10:04:43.334Z,22.35
2018-10-04T10:07:10.803Z,22.75
2018-10-04T10:09:38.254Z,23.15
2018-10-04T10:12:05.890Z,22.92
2018-10-04T10:14:33.389Z,22.80
2018-10-04T10:17:00.815Z,22.80
2018-10-04T10:19:28.405Z,22.68
2018-10-04T10:21:56.166Z,22.83
2018-10-04T10:24:24.439Z,23.21
2018-10-04T10:26:51.968Z,23.35
2018-10-04T10:29:20.607Z,23.22
2018-10-04T10:31:48.089Z,23.18
2018-10-04T10:34:15.525Z,22.87
2018-10-04T10:36:43.869Z,22.58
2018-10-04T10:39:11.376Z,22.58
2018-10-04T10:41:38.828Z,22.97
2018-10-04T10:44:06.295Z,22.81
2018-10-04T10:46:33.844Z,22.92
2018-10-04T10:49:01.426Z,22.59
2018-10-04T10:51:28.892Z,22.58
2018-10-04T10:53:56.589Z,22.67
2018-10-04T10:56:24.058Z,22.75
2018-10-04T10:58:51.543Z,23.05
2018-10-04T11:01:19.025Z,23.11
2018-10-04T11:03:46.483Z,23.49
2018-10-04T11:06:13.495Z,23.84
2018-10-04T11:08:41.111Z,24.07
2018-10-04T11:11:08.653Z,23.94
2018-10-04T11:13:35.684Z,23.38
2018-10-04T11:16:03.164Z,23.54
2018-10-04T11:18:30.719Z,23.66
2018-10-04T11:20:58.289Z,23.50
2018-10-04T11:23:25.960Z,23.65
2018-10-04T11:25:53.436Z,23.83
2018-10-04T11:28:20.419Z,24.17
2018-10-04T11:30:47.809Z,24.36
2018-10-04T11:33:15.411Z,24.30
2018-10-04T11:35:42.829Z,24.15
2018-10-04T11:38:10.658Z,23.99
2018-10-04T11:40:38.202Z,24.61
2018-10-04T11:43:05.659Z,24.67
2018-10-04T11:45:33.737Z,24.92
2018-10-04T11:48:01.367Z,24.79
2018-10-04T11:50:28.901Z,24.86
2018-10-04T11:52:56.392Z,24.63
2018-10-04T11:55:24.068Z,24.05
2018-10-04T11:57:51.710Z,24.00
2018-10-04T12:00:19.234Z,24.15
2018-10-04T12:02:47.381Z,24.20
2018-10-04T12:05:14.894Z,24.64
2018-10-04T12:07:42.374Z,25.22
2018-10-04T12:10:09.860Z,25.00
2018-10-04T12:12:37.339Z,24.85
2018-10-04T12:15:04.786Z,24.68
2018-10-04T12:17:32.210Z,24.57
2018-10-04T12:19:59.646Z,24.70
2018-10-04T12:22:27.140Z,24.87
2018-10-04T12:24:54.600Z,24.95
2018-10-04T12:27:22.109Z,25.01
2018-10-04T12:29:49.540Z,25.08
2018-10-04T12:32:17.093Z,25.05
2018-10-04T12:34:44.647Z,25.14
2018-10-04T12:37:12.195Z,24.74
2018-10-04T12:39:39.766Z,24.56
2018-10-04T12:42:07.242Z,25.00
2018-10-04T12:44:34.654Z,24.98
2018-10-04T12:47:02.062Z,24.95
2018-10-04T12:49:29.587Z,24.78
2018-10-04T12:51:56.991Z,24.79
2018-10-04T12:54:24.530Z,24.72
2018-10-04T12:56:51.986Z,25.10
2018-10-04T12:59:19.524Z,25.27
2018-10-04T13:01:47.009Z,26.02
2018-10-04T13:04:14.500Z,26.46
2018-10-04T13:06:42.003Z,26.67
2018-10-04T13:09:09.563Z,25.85
2018-10-04T13:11:37.034Z,25.41
2018-10-04T13:14:04.524Z,25.30
2018-10-04T13:16:32.144Z,25.01
2018-10-04T13:18:59.632Z,24.67
2018-10-04T13:21:27.119Z,24.44
2018-10-04T13:23:54.519Z,24.49
2018-10-04T13:26:22.122Z,24.59
2018-10-04T13:28:49.753Z,24.62
2018-10-04T13:31:17.224Z,25.14
2018-10-04T13:33:44.826Z,25.11
2018-10-04T13:36:12.256Z,25.25
2018-10-04T13:38:39.653Z,25.28
2018-10-04T13:41:07.218Z,24.96
2018-10-04T13:43:34.708Z,24.83
2018-10-04T13:46:02.149Z,24.81
2018-10-04T13:48:29.765Z,24.79
2018-10-04T13:50:57.331Z,24.67
2018-10-04T13:53:26.130Z,24.50
2018-10-04T13:55:53.624Z,24.86
2018-10-04T13:58:21.390Z,24.89
2018-10-04T14:00:49.623Z,24.67
2018-10-04T14:03:17.216Z,24.91
2018-10-04T14:05:44.700Z,24.76
2018-10-04T14:08:12.167Z,24.63
2018-10-04T14:10:40.098Z,24.63
2018-10-04T14:13:07.674Z,24.61
2018-10-04T14:15:35.078Z,24.49
2018-10-04T14:18:02.636Z,24.64
2018-10-04T14:20:30.054Z,24.84
2018-10-04T14:22:57.487Z,24.75
2018-10-04T14:25:24.955Z,24.55
2018-10-04T14:30:25.077Z,24.22
2018-10-04T14:32:52.672Z,24.20
2018-10-04T14:35:20.089Z,24.35
2018-10-04T14:37:47.698Z,24.38
2018-10-04T14:40:15.184Z,24.51
2018-10-04T14:42:42.611Z,24.53
2018-10-04T14:45:10.202Z,24.51
2018-10-04T14:47:37.615Z,24.43
2018-10-04T14:50:05.112Z,24.32
2018-10-04T14:52:32.609Z,24.44
2018-10-04T14:55:00.109Z,24.34
2018-10-04T14:57:28.825Z,24.17
2018-10-04T14:59:56.255Z,24.20
2018-10-04T15:02:23.687Z,24.18
2018-10-04T15:04:51.132Z,24.26
2018-10-04T15:07:18.580Z,24.23
2018-10-04T15:09:46.018Z,24.32
2018-10-04T15:12:13.450Z,24.74
2018-10-04T15:14:40.973Z,24.94
2018-10-04T15:17:08.437Z,25.23
2018-10-04T15:19:35.955Z,24.98
2018-10-04T15:22:03.563Z,24.75
2018-10-04T15:24:31.960Z,24.51
2018-10-04T15:26:59.443Z,24.32
2018-10-04T15:29:26.959Z,24.09
2018-10-04T15:31:54.454Z,23.92
2018-10-04T15:34:21.964Z,24.08
2018-10-04T15:36:49.574Z,24.40
2018-10-04T15:39:17.015Z,24.87
2018-10-04T15:41:44.497Z,25.24
2018-10-04T15:44:11.985Z,25.33
2018-10-04T15:46:39.477Z,25.69
2018-10-04T15:49:06.903Z,26.63
2018-10-04T15:51:34.407Z,27.58
2018-10-04T15:54:01.899Z,28.55
2018-10-04T15:56:29.378Z,29.55
2018-10-04T15:58:56.819Z,30.10
2018-10-04T16:01:24.282Z,30.65
2018-10-04T16:03:51.750Z,30.75
2018-10-04T16:06:19.275Z,30.67
2018-10-04T16:08:46.749Z,30.52
2018-10-04T16:11:14.199Z,30.68
2018-10-04T16:13:42.029Z,30.25
2018-10-04T16:16:10.394Z,30.47
2018-10-04T16:18:37.909Z,30.38
2018-10-04T16:21:05.458Z,30.02
2018-10-04T16:23:32.911Z,30.20
2018-10-04T16:26:00.431Z,30.43
2018-10-04T16:28:27.870Z,30.58
2018-10-04T16:30:55.346Z,30.63
2018-10-04T16:33:22.919Z,30.23
2018-10-04T16:35:50.360Z,29.93
2018-10-04T16:38:17.959Z,29.31
2018-10-04T16:40:45.418Z,29.16
2018-10-04T16:43:12.855Z,28.61
2018-10-04T16:45:40.336Z,27.70
2018-10-04T16:48:08.135Z,27.33
2018-10-04T16:50:35.675Z,26.29
2018-10-04T16:53:03.088Z,23.95
2018-10-04T16:55:30.647Z,22.57
2018-10-04T16:57:57.684Z,21.84
2018-10-04T17:00:24.784Z,21.38
2018-10-04T17:02:51.770Z,21.18
2018-10-04T17:05:18.886Z,20.99
2018-10-04T17:07:46.367Z,20.85
2018-10-04T17:10:13.907Z,20.72
2018-10-04T17:12:41.426Z,20.62
2018-10-04T17:15:09.113Z,20.52
2018-10-04T17:17:36.540Z,20.53
2018-10-04T17:20:03.954Z,20.40
2018-10-04T17:22:31.472Z,20.26
2018-10-04T17:24:58.998Z,20.12
2018-10-04T17:27:26.962Z,20.13
2018-10-04T17:29:54.428Z,20.13
2018-10-04T17:32:21.959Z,20.04
2018-10-04T17:34:49.460Z,20.01
2018-10-04T17:37:16.938Z,20.01
2018-10-04T17:39:44.408Z,19.97
2018-10-04T17:42:12.036Z,19.97
2018-10-04T17:44:39.545Z,19.97
2018-10-04T17:47:06.970Z,19.89
2018-10-04T17:49:34.425Z,19.85
2018-10-04T17:52:02.461Z,19.78
2018-10-04T17:54:29.866Z,19.70
2018-10-04T17:56:57.373Z,19.70
2018-10-04T17:59:24.857Z,19.69
2018-10-04T18:01:52.343Z,19.64
2018-10-04T18:04:19.828Z,19.56
2018-10-04T18:06:47.298Z,19.51
2018-10-04T18:09:14.755Z,19.38
2018-10-04T18:11:42.772Z,19.28
2018-10-04T18:14:10.309Z,19.19
2018-10-04T18:16:37.966Z,19.09
2018-10-04T18:19:05.481Z,19.05
2018-10-04T18:21:33.028Z,19.04
2018-10-04T18:24:00.509Z,19.01
2018-10-04T18:26:27.985Z,18.95
2018-10-04T18:28:55.431Z,18.89
2018-10-04T18:31:22.920Z,18.84
2018-10-04T18:33:50.342Z,18.79
2018-10-04T18:36:17.848Z,18.78
2018-10-04T18:38:45.338Z,18.75
2018-10-04T18:41:12.831Z,18.72
2018-10-04T18:43:40.260Z,18.71
2018-10-04T18:46:07.655Z,18.71
2018-10-04T18:48:35.148Z,18.72
2018-10-04T18:51:02.624Z,18.69
2018-10-04T18:53:30.015Z,18.61
2018-10-04T18:55:57.692Z,18.56
2018-10-04T18:58:26.483Z,18.54
2018-10-04T19:00:53.926Z,18.47
2018-10-04T19:03:21.379Z,18.43
2018-10-04T19:05:48.995Z,18.43
2018-10-04T19:08:16.366Z,18.45
2018-10-04T19:10:43.979Z,18.45
2018-10-04T19:13:23.868Z,18.33
2018-10-04T19:15:51.363Z,18.28
2018-10-04T19:18:18.885Z,18.26
2018-10-04T19:20:46.324Z,18.18
2018-10-04T19:23:13.766Z,18.12
2018-10-04T19:25:41.175Z,18.11
2018-10-04T19:28:08.717Z,18.08
2018-10-04T19:30:36.226Z,18.01
2018-10-04T19:33:03.752Z,17.95
2018-10-04T19:35:31.281Z,17.89
2018-10-04T19:37:58.807Z,17.89
2018-10-04T19:40:26.312Z,17.86
2018-10-04T19:42:53.795Z,17.77
2018-10-04T19:45:21.237Z,17.69
2018-10-04T19:47:48.756Z,17.67
2018-10-04T19:50:16.194Z,17.61
2018-10-04T19:52:43.648Z,17.57
2018-10-04T19:55:11.077Z,17.54
2018-10-04T19:57:38.919Z,17.55
2018-10-04T20:00:06.356Z,17.56
2018-10-04T20:02:33.783Z,17.46
2018-10-04T20:05:01.273Z,17.36
2018-10-04T20:07:28.773Z,17.31
2018-10-04T20:09:56.212Z,17.23
2018-10-04T20:12:23.691Z,17.16
2018-10-04T20:14:51.842Z,17.14
2018-10-04T20:17:19.354Z,17.11
2018-10-04T20:19:46.902Z,17.04
2018-10-04T20:22:15.154Z,16.98
2018-10-04T20:24:42.576Z,17.01
2018-10-04T20:27:10.066Z,17.01
2018-10-04T20:29:37.536Z,16.95
2018-10-04T20:32:05.085Z,16.87
2018-10-04T20:34:32.549Z,16.82
2018-10-04T20:37:00.070Z,16.73
2018-10-04T20:39:27.538Z,16.67
2018-10-04T20:41:55.002Z,16.63
2018-10-04T20:44:23.297Z,16.60
2018-10-04T20:46:50.794Z,16.59
2018-10-04T20:49:18.216Z,16.41
2018-10-04T20:51:45.770Z,16.34
2018-10-04T20:54:13.418Z,16.21
2018-10-04T20:56:40.838Z,16.14
2018-10-04T20:59:08.305Z,15.98
2018-10-04T21:01:35.708Z,15.83
2018-10-04T21:04:03.259Z,15.74
2018-10-04T21:06:30.878Z,15.79
2018-10-04T21:08:58.509Z,15.79
2018-10-04T21:11:25.967Z,15.80
2018-10-04T21:13:53.448Z,15.82
2018-10-04T21:16:21.202Z,15.84
2018-10-04T21:18:48.720Z,15.86
2018-10-04T21:21:16.305Z,15.90
2018-10-04T21:23:43.741Z,15.95
2018-10-04T21:26:12.050Z,15.93
2018-10-04T21:28:39.460Z,15.96
2018-10-04T21:31:08.082Z,15.96
2018-10-04T21:33:35.576Z,15.96
2018-10-04T21:36:03.063Z,16.01
2018-10-04T21:38:30.530Z,15.97
2018-10-04T21:40:57.968Z,15.89
2018-10-04T21:43:26.004Z,15.77
2018-10-04T21:45:53.560Z,15.78
2018-10-04T21:48:20.979Z,15.81
2018-10-04T21:50:48.487Z,15.72
2018-10-04T21:53:15.958Z,15.67
2018-10-04T21:55:43.383Z,15.70
2018-10-04T21:58:11.012Z,15.71
2018-10-04T22:00:38.523Z,15.76
2018-10-04T22:03:06.022Z,15.73
2018-10-04T22:05:33.540Z,15.69
2018-10-04T22:08:01.017Z,15.69
2018-10-04T22:10:28.604Z,15.61
2018-10-04T22:12:56.059Z,15.57
2018-10-04T22:15:23.624Z,15.55
2018-10-04T22:17:52.028Z,15.56
2018-10-04T22:20:19.564Z,15.53
2018-10-04T22:22:46.966Z,15.54
2018-10-04T22:25:14.433Z,15.56
2018-10-04T22:27:41.838Z,15.47
2018-10-04T22:30:09.231Z,15.41
2018-10-04T22:32:36.843Z,15.35
2018-10-04T22:35:04.408Z,15.32
2018-10-04T22:37:32.607Z,15.35
2018-10-04T22:40:00.258Z,15.32
2018-10-04T22:42:27.684Z,15.28
2018-10-04T22:44:55.155Z,15.25
2018-10-04T22:47:22.647Z,15.18
2018-10-04T22:49:50.193Z,15.17
2018-10-04T22:52:17.631Z,15.18
2018-10-04T22:54:45.085Z,15.11
2018-10-04T22:57:12.513Z,15.12
2018-10-04T22:59:40.845Z,15.09
2018-10-04T23:02:08.385Z,15.01
2018-10-04T23:04:35.781Z,14.91
2018-10-04T23:07:03.193Z,14.87
2018-10-04T23:09:30.693Z,14.80
2018-10-04T23:11:58.180Z,14.75
2018-10-04T23:14:25.594Z,14.74
2018-10-04T23:16:53.081Z,14.74
2018-10-04T23:19:20.516Z,14.75
2018-10-04T23:21:47.973Z,14.75
2018-10-04T23:24:15.380Z,14.73
2018-10-04T23:26:42.839Z,14.71
2018-10-04T23:29:10.267Z,14.72
2018-10-04T23:31:37.831Z,14.69
2018-10-04T23:34:05.336Z,14.71
2018-10-04T23:36:32.777Z,14.69
2018-10-04T23:39:00.195Z,14.70
2018-10-04T23:41:27.659Z,14.65
2018-10-04T23:43:55.058Z,14.56
2018-10-04T23:46:23.395Z,14.54
2018-10-04T23:48:50.881Z,14.45
2018-10-04T23:51:18.301Z,14.41
2018-10-04T23:53:45.781Z,14.38
2018-10-04T23:56:13.344Z,14.40
2018-10-04T23:58:40.838Z,14.40
